sensor_id;sensor_type;location;lat;lon;timestamp;temperature;humidity
39219;DHT22;24934;52.752;6.964;2023-06-14T00:00:20;14.80;99.90
39219;DHT22;24934;52.752;6.964;2023-06-14T00:02:46;14.70;99.90
39219;DHT22;24934;52.752;6.964;2023-06-14T00:05:12;14.60;99.90
39219;DHT22;24934;52.752;6.964;2023-06-14T00:07:41;14.60;99.90
39219;DHT22;24934;52.752;6.964;2023-06-14T00:10:14;14.60;99.90
39219;DHT22;24934;52.752;6.964;2023-06-14T00:12:40;14.60;99.90
39219;DHT22;24934;52.752;6.964;2023-06-14T00:15:07;14.60;99.90
39219;DHT22;24934;52.752;6.964;2023-06-14T00:17:35;14.50;99.90
39219;DHT22;24934;52.752;6.964;2023-06-14T00:20:03;14.50;99.90
39219;DHT22;24934;52.752;6.964;2023-06-14T00:22:35;14.40;99.90
39219;DHT22;24934;52.752;6.964;2023-06-14T00:25:02;14.40;99.90
39219;DHT22;24934;52.752;6.964;2023-06-14T00:27:27;14.40;99.90
39219;DHT22;24934;52.752;6.964;2023-06-14T00:29:53;14.30;99.90
39219;DHT22;24934;52.752;6.964;2023-06-14T00:32:19;14.30;99.90
39219;DHT22;24934;52.752;6.964;2023-06-14T00:34:45;14.20;99.90
39219;DHT22;24934;52.752;6.964;2023-06-14T00:37:11;14.20;99.90
39219;DHT22;24934;52.752;6.964;2023-06-14T00:39:37;14.10;99.90
39219;DHT22;24934;52.752;6.964;2023-06-14T00:42:02;14.10;99.90
39219;DHT22;24934;52.752;6.964;2023-06-14T00:44:28;14.10;99.90
39219;DHT22;24934;52.752;6.964;2023-06-14T00:46:54;14.10;99.90
39219;DHT22;24934;52.752;6.964;2023-06-14T00:49:19;14.10;99.90
39219;DHT22;24934;52.752;6.964;2023-06-14T00:51:45;14.10;99.90
39219;DHT22;24934;52.752;6.964;2023-06-14T00:54:11;14.00;99.90
39219;DHT22;24934;52.752;6.964;2023-06-14T00:56:37;14.00;99.90
39219;DHT22;24934;52.752;6.964;2023-06-14T00:59:03;14.00;99.90
39219;DHT22;24934;52.752;6.964;2023-06-14T01:01:31;14.00;99.90
39219;DHT22;24934;52.752;6.964;2023-06-14T01:04:01;14.00;99.90
39219;DHT22;24934;52.752;6.964;2023-06-14T01:12:13;13.90;99.90
39219;DHT22;24934;52.752;6.964;2023-06-14T01:14:41;13.80;99.90
39219;DHT22;24934;52.752;6.964;2023-06-14T01:17:08;13.80;99.90
39219;DHT22;24934;52.752;6.964;2023-06-14T01:19:41;13.70;99.90
39219;DHT22;24934;52.752;6.964;2023-06-14T01:22:08;13.70;99.90
39219;DHT22;24934;52.752;6.964;2023-06-14T01:24:34;13.70;99.90
39219;DHT22;24934;52.752;6.964;2023-06-14T01:27:01;13.70;99.90
39219;DHT22;24934;52.752;6.964;2023-06-14T01:29:28;13.70;99.90
39219;DHT22;24934;52.752;6.964;2023-06-14T01:31:58;13.60;99.90
39219;DHT22;24934;52.752;6.964;2023-06-14T01:34:24;13.50;99.90
39219;DHT22;24934;52.752;6.964;2023-06-14T01:36:50;13.50;99.90
39219;DHT22;24934;52.752;6.964;2023-06-14T01:39:17;13.50;99.90
39219;DHT22;24934;52.752;6.964;2023-06-14T01:41:44;13.50;99.90
39219;DHT22;24934;52.752;6.964;2023-06-14T01:44:12;13.40;99.90
39219;DHT22;24934;52.752;6.964;2023-06-14T01:46:40;13.40;99.90
39219;DHT22;24934;52.752;6.964;2023-06-14T01:49:07;13.40;99.90
39219;DHT22;24934;52.752;6.964;2023-06-14T01:51:33;13.30;99.90
39219;DHT22;24934;52.752;6.964;2023-06-14T01:53:59;13.30;99.90
39219;DHT22;24934;52.752;6.964;2023-06-14T01:56:25;13.20;99.90
39219;DHT22;24934;52.752;6.964;2023-06-14T01:58:51;13.20;99.90
39219;DHT22;24934;52.752;6.964;2023-06-14T02:01:17;13.20;99.90
39219;DHT22;24934;52.752;6.964;2023-06-14T02:03:44;13.20;99.90
39219;DHT22;24934;52.752;6.964;2023-06-14T02:06:10;13.10;99.90
39219;DHT22;24934;52.752;6.964;2023-06-14T02:08:36;13.20;99.90
39219;DHT22;24934;52.752;6.964;2023-06-14T02:11:01;13.10;99.90
39219;DHT22;24934;52.752;6.964;2023-06-14T02:13:29;13.10;99.90
39219;DHT22;24934;52.752;6.964;2023-06-14T02:15:55;13.10;99.90
39219;DHT22;24934;52.752;6.964;2023-06-14T02:18:21;13.10;99.90
39219;DHT22;24934;52.752;6.964;2023-06-14T02:20:47;13.10;99.90
39219;DHT22;24934;52.752;6.964;2023-06-14T02:23:12;13.00;99.90
39219;DHT22;24934;52.752;6.964;2023-06-14T02:25:38;13.00;99.90
39219;DHT22;24934;52.752;6.964;2023-06-14T02:28:05;13.00;99.90
39219;DHT22;24934;52.752;6.964;2023-06-14T02:30:31;12.90;99.90
39219;DHT22;24934;52.752;6.964;2023-06-14T02:32:57;12.80;99.90
39219;DHT22;24934;52.752;6.964;2023-06-14T02:35:24;12.80;99.90
39219;DHT22;24934;52.752;6.964;2023-06-14T02:37:52;12.80;99.90
39219;DHT22;24934;52.752;6.964;2023-06-14T02:40:18;12.80;99.90
39219;DHT22;24934;52.752;6.964;2023-06-14T02:42:44;12.80;99.90
39219;DHT22;24934;52.752;6.964;2023-06-14T02:45:13;12.80;99.90
39219;DHT22;24934;52.752;6.964;2023-06-14T02:47:38;12.70;99.90
39219;DHT22;24934;52.752;6.964;2023-06-14T02:50:04;12.70;99.90
39219;DHT22;24934;52.752;6.964;2023-06-14T02:52:33;12.60;99.90
39219;DHT22;24934;52.752;6.964;2023-06-14T02:54:59;12.70;99.90
39219;DHT22;24934;52.752;6.964;2023-06-14T02:57:25;12.70;99.90
39219;DHT22;24934;52.752;6.964;2023-06-14T02:59:50;12.60;99.90
39219;DHT22;24934;52.752;6.964;2023-06-14T03:02:17;12.60;99.90
39219;DHT22;24934;52.752;6.964;2023-06-14T03:04:42;12.60;99.90
39219;DHT22;24934;52.752;6.964;2023-06-14T03:07:10;12.60;99.90
39219;DHT22;24934;52.752;6.964;2023-06-14T03:09:36;12.60;99.90
39219;DHT22;24934;52.752;6.964;2023-06-14T03:12:03;12.50;99.90
39219;DHT22;24934;52.752;6.964;2023-06-14T03:14:29;12.50;99.90
39219;DHT22;24934;52.752;6.964;2023-06-14T03:16:56;12.50;99.90
39219;DHT22;24934;52.752;6.964;2023-06-14T03:19:22;12.60;99.90
39219;DHT22;24934;52.752;6.964;2023-06-14T03:21:48;12.60;99.90
39219;DHT22;24934;52.752;6.964;2023-06-14T03:24:14;12.60;99.90
39219;DHT22;24934;52.752;6.964;2023-06-14T03:26:42;12.60;99.90
39219;DHT22;24934;52.752;6.964;2023-06-14T03:29:11;12.60;99.90
39219;DHT22;24934;52.752;6.964;2023-06-14T03:31:39;12.60;99.90
39219;DHT22;24934;52.752;6.964;2023-06-14T03:34:05;12.60;99.90
39219;DHT22;24934;52.752;6.964;2023-06-14T03:36:31;12.60;99.90
39219;DHT22;24934;52.752;6.964;2023-06-14T03:38:59;12.60;99.90
39219;DHT22;24934;52.752;6.964;2023-06-14T03:41:24;12.70;99.90
39219;DHT22;24934;52.752;6.964;2023-06-14T03:43:51;12.70;99.90
39219;DHT22;24934;52.752;6.964;2023-06-14T03:46:17;12.70;99.90
39219;DHT22;24934;52.752;6.964;2023-06-14T03:48:43;12.80;99.90
39219;DHT22;24934;52.752;6.964;2023-06-14T03:51:08;12.70;99.90
39219;DHT22;24934;52.752;6.964;2023-06-14T03:53:34;12.80;99.90
39219;DHT22;24934;52.752;6.964;2023-06-14T03:56:01;12.80;99.90
39219;DHT22;24934;52.752;6.964;2023-06-14T03:58:27;12.80;99.90
39219;DHT22;24934;52.752;6.964;2023-06-14T04:00:53;12.80;99.90
39219;DHT22;24934;52.752;6.964;2023-06-14T04:03:19;12.90;99.90
39219;DHT22;24934;52.752;6.964;2023-06-14T04:05:45;12.90;99.90
39219;DHT22;24934;52.752;6.964;2023-06-14T04:08:14;13.00;99.90
39219;DHT22;24934;52.752;6.964;2023-06-14T04:10:41;13.00;99.90
39219;DHT22;24934;52.752;6.964;2023-06-14T04:13:07;13.10;99.90
39219;DHT22;24934;52.752;6.964;2023-06-14T04:15:33;13.30;99.90
39219;DHT22;24934;52.752;6.964;2023-06-14T04:18:02;13.40;99.90
39219;DHT22;24934;52.752;6.964;2023-06-14T04:20:28;13.40;99.90
39219;DHT22;24934;52.752;6.964;2023-06-14T04:22:56;13.50;99.90
39219;DHT22;24934;52.752;6.964;2023-06-14T04:25:22;13.60;99.90
39219;DHT22;24934;52.752;6.964;2023-06-14T04:27:50;14.10;99.90
39219;DHT22;24934;52.752;6.964;2023-06-14T04:30:15;15.00;99.90
39219;DHT22;24934;52.752;6.964;2023-06-14T04:32:42;15.40;99.90
39219;DHT22;24934;52.752;6.964;2023-06-14T04:35:08;15.50;99.90
39219;DHT22;24934;52.752;6.964;2023-06-14T04:37:34;15.50;99.90
39219;DHT22;24934;52.752;6.964;2023-06-14T04:40:00;15.30;99.90
39219;DHT22;24934;52.752;6.964;2023-06-14T04:42:26;15.20;99.90
39219;DHT22;24934;52.752;6.964;2023-06-14T04:44:56;15.20;99.90
39219;DHT22;24934;52.752;6.964;2023-06-14T04:47:23;15.10;99.90
39219;DHT22;24934;52.752;6.964;2023-06-14T04:49:55;15.10;99.90
39219;DHT22;24934;52.752;6.964;2023-06-14T04:52:21;15.10;99.90
39219;DHT22;24934;52.752;6.964;2023-06-14T04:54:47;15.20;99.90
39219;DHT22;24934;52.752;6.964;2023-06-14T04:57:14;15.20;99.90
39219;DHT22;24934;52.752;6.964;2023-06-14T04:59:45;15.20;99.90
39219;DHT22;24934;52.752;6.964;2023-06-14T05:02:11;15.30;99.90
39219;DHT22;24934;52.752;6.964;2023-06-14T05:04:37;15.30;99.90
39219;DHT22;24934;52.752;6.964;2023-06-14T05:07:07;15.40;99.90
39219;DHT22;24934;52.752;6.964;2023-06-14T05:09:33;15.40;99.90
39219;DHT22;24934;52.752;6.964;2023-06-14T05:12:01;15.50;99.90
39219;DHT22;24934;52.752;6.964;2023-06-14T05:14:26;15.50;99.90
39219;DHT22;24934;52.752;6.964;2023-06-14T05:16:52;15.60;99.90
39219;DHT22;24934;52.752;6.964;2023-06-14T05:19:19;15.60;99.90
39219;DHT22;24934;52.752;6.964;2023-06-14T05:21:46;15.80;99.90
39219;DHT22;24934;52.752;6.964;2023-06-14T05:24:13;16.00;99.90
39219;DHT22;24934;52.752;6.964;2023-06-14T05:26:38;16.10;99.90
39219;DHT22;24934;52.752;6.964;2023-06-14T05:29:04;16.10;99.90
39219;DHT22;24934;52.752;6.964;2023-06-14T05:31:31;16.10;99.90
39219;DHT22;24934;52.752;6.964;2023-06-14T05:33:58;16.10;99.90
39219;DHT22;24934;52.752;6.964;2023-06-14T05:36:23;16.20;99.90
39219;DHT22;24934;52.752;6.964;2023-06-14T05:38:50;16.20;99.90
39219;DHT22;24934;52.752;6.964;2023-06-14T05:41:26;16.30;99.90
39219;DHT22;24934;52.752;6.964;2023-06-14T05:43:53;16.30;99.90
39219;DHT22;24934;52.752;6.964;2023-06-14T05:46:24;16.50;99.90
39219;DHT22;24934;52.752;6.964;2023-06-14T05:48:51;16.50;99.90
39219;DHT22;24934;52.752;6.964;2023-06-14T05:51:17;16.60;99.90
39219;DHT22;24934;52.752;6.964;2023-06-14T05:53:46;16.70;99.90
39219;DHT22;24934;52.752;6.964;2023-06-14T05:56:16;16.80;99.90
39219;DHT22;24934;52.752;6.964;2023-06-14T05:58:43;16.80;99.90
39219;DHT22;24934;52.752;6.964;2023-06-14T06:01:09;16.90;99.90
39219;DHT22;24934;52.752;6.964;2023-06-14T06:03:35;17.00;99.90
39219;DHT22;24934;52.752;6.964;2023-06-14T06:06:01;17.10;99.90
39219;DHT22;24934;52.752;6.964;2023-06-14T06:08:34;17.20;99.90
39219;DHT22;24934;52.752;6.964;2023-06-14T06:11:02;17.30;99.90
39219;DHT22;24934;52.752;6.964;2023-06-14T06:13:28;17.40;99.90
39219;DHT22;24934;52.752;6.964;2023-06-14T06:15:54;17.40;99.90
39219;DHT22;24934;52.752;6.964;2023-06-14T06:18:19;17.60;99.90
39219;DHT22;24934;52.752;6.964;2023-06-14T06:20:45;17.60;99.90
39219;DHT22;24934;52.752;6.964;2023-06-14T06:23:12;17.70;99.90
39219;DHT22;24934;52.752;6.964;2023-06-14T06:25:38;17.80;99.90
39219;DHT22;24934;52.752;6.964;2023-06-14T06:28:04;17.90;99.90
39219;DHT22;24934;52.752;6.964;2023-06-14T06:30:29;17.90;99.90
39219;DHT22;24934;52.752;6.964;2023-06-14T06:32:55;18.00;99.90
39219;DHT22;24934;52.752;6.964;2023-06-14T06:35:23;18.10;99.90
39219;DHT22;24934;52.752;6.964;2023-06-14T06:37:49;18.20;99.90
39219;DHT22;24934;52.752;6.964;2023-06-14T06:40:15;18.20;99.90
39219;DHT22;24934;52.752;6.964;2023-06-14T06:42:41;18.30;99.90
39219;DHT22;24934;52.752;6.964;2023-06-14T06:45:09;18.40;99.90
39219;DHT22;24934;52.752;6.964;2023-06-14T06:47:35;18.50;99.90
39219;DHT22;24934;52.752;6.964;2023-06-14T06:50:01;18.50;99.90
39219;DHT22;24934;52.752;6.964;2023-06-14T06:52:27;18.60;99.90
39219;DHT22;24934;52.752;6.964;2023-06-14T06:54:52;18.70;99.90
39219;DHT22;24934;52.752;6.964;2023-06-14T06:57:20;19.00;99.90
39219;DHT22;24934;52.752;6.964;2023-06-14T06:59:48;19.20;99.90
39219;DHT22;24934;52.752;6.964;2023-06-14T07:02:14;19.30;99.90
39219;DHT22;24934;52.752;6.964;2023-06-14T07:04:39;19.40;99.90
39219;DHT22;24934;52.752;6.964;2023-06-14T07:07:05;19.30;99.90
39219;DHT22;24934;52.752;6.964;2023-06-14T07:09:31;19.20;99.90
39219;DHT22;24934;52.752;6.964;2023-06-14T07:11:56;19.20;99.90
39219;DHT22;24934;52.752;6.964;2023-06-14T07:14:22;19.20;99.90
39219;DHT22;24934;52.752;6.964;2023-06-14T07:16:50;19.30;99.90
39219;DHT22;24934;52.752;6.964;2023-06-14T07:19:16;19.40;99.90
39219;DHT22;24934;52.752;6.964;2023-06-14T07:21:45;19.50;99.90
39219;DHT22;24934;52.752;6.964;2023-06-14T07:24:11;19.60;99.90
39219;DHT22;24934;52.752;6.964;2023-06-14T07:26:37;19.60;99.90
39219;DHT22;24934;52.752;6.964;2023-06-14T07:29:03;19.60;99.90
39219;DHT22;24934;52.752;6.964;2023-06-14T07:31:28;19.50;99.90
39219;DHT22;24934;52.752;6.964;2023-06-14T07:33:54;19.50;99.90
39219;DHT22;24934;52.752;6.964;2023-06-14T07:36:19;19.50;99.90
39219;DHT22;24934;52.752;6.964;2023-06-14T07:38:46;19.60;99.90
39219;DHT22;24934;52.752;6.964;2023-06-14T07:41:11;19.70;99.90
39219;DHT22;24934;52.752;6.964;2023-06-14T07:43:37;19.80;99.90
39219;DHT22;24934;52.752;6.964;2023-06-14T07:46:03;19.80;99.90
39219;DHT22;24934;52.752;6.964;2023-06-14T07:48:28;19.90;99.90
39219;DHT22;24934;52.752;6.964;2023-06-14T07:50:54;20.10;99.90
39219;DHT22;24934;52.752;6.964;2023-06-14T07:53:20;20.10;99.90
39219;DHT22;24934;52.752;6.964;2023-06-14T07:55:46;20.10;99.90
39219;DHT22;24934;52.752;6.964;2023-06-14T07:58:12;20.20;99.90
39219;DHT22;24934;52.752;6.964;2023-06-14T08:00:38;20.50;99.90
39219;DHT22;24934;52.752;6.964;2023-06-14T08:03:06;21.20;99.90
39219;DHT22;24934;52.752;6.964;2023-06-14T08:05:33;22.60;99.90
39219;DHT22;24934;52.752;6.964;2023-06-14T08:07:58;24.20;99.90
39219;DHT22;24934;52.752;6.964;2023-06-14T08:10:24;25.40;98.40
39219;DHT22;24934;52.752;6.964;2023-06-14T08:12:50;26.20;95.60
39219;DHT22;24934;52.752;6.964;2023-06-14T08:15:16;26.80;93.70
39219;DHT22;24934;52.752;6.964;2023-06-14T08:17:47;27.60;93.10
39219;DHT22;24934;52.752;6.964;2023-06-14T08:20:13;28.30;92.10
39219;DHT22;24934;52.752;6.964;2023-06-14T08:22:42;28.50;90.70
39219;DHT22;24934;52.752;6.964;2023-06-14T08:25:13;28.60;90.10
39219;DHT22;24934;52.752;6.964;2023-06-14T08:27:42;28.30;88.40
39219;DHT22;24934;52.752;6.964;2023-06-14T08:30:08;28.80;86.40
39219;DHT22;24934;52.752;6.964;2023-06-14T08:32:34;28.80;85.00
39219;DHT22;24934;52.752;6.964;2023-06-14T08:34:59;28.20;82.50
39219;DHT22;24934;52.752;6.964;2023-06-14T08:37:25;28.10;82.20
39219;DHT22;24934;52.752;6.964;2023-06-14T08:39:52;28.30;83.00
39219;DHT22;24934;52.752;6.964;2023-06-14T08:42:19;28.60;82.30
39219;DHT22;24934;52.752;6.964;2023-06-14T08:44:46;29.10;81.10
39219;DHT22;24934;52.752;6.964;2023-06-14T08:47:13;29.30;80.20
39219;DHT22;24934;52.752;6.964;2023-06-14T08:49:41;28.40;79.80
39219;DHT22;24934;52.752;6.964;2023-06-14T08:52:10;28.10;80.40
39219;DHT22;24934;52.752;6.964;2023-06-14T08:54:38;28.00;81.70
39219;DHT22;24934;52.752;6.964;2023-06-14T08:57:12;28.00;82.10
39219;DHT22;24934;52.752;6.964;2023-06-14T08:59:47;28.30;81.70
39219;DHT22;24934;52.752;6.964;2023-06-14T09:02:18;28.50;80.40
39219;DHT22;24934;52.752;6.964;2023-06-14T09:04:48;29.10;80.60
39219;DHT22;24934;52.752;6.964;2023-06-14T09:07:15;29.40;80.00
39219;DHT22;24934;52.752;6.964;2023-06-14T09:09:41;29.60;80.20
39219;DHT22;24934;52.752;6.964;2023-06-14T09:12:10;29.90;79.10
39219;DHT22;24934;52.752;6.964;2023-06-14T09:14:38;29.90;76.70
39219;DHT22;24934;52.752;6.964;2023-06-14T09:17:08;29.80;75.50
39219;DHT22;24934;52.752;6.964;2023-06-14T09:19:34;30.00;75.10
39219;DHT22;24934;52.752;6.964;2023-06-14T09:22:02;30.10;74.30
39219;DHT22;24934;52.752;6.964;2023-06-14T09:24:28;29.90;73.80
39219;DHT22;24934;52.752;6.964;2023-06-14T09:26:54;29.70;74.00
39219;DHT22;24934;52.752;6.964;2023-06-14T09:29:20;29.30;73.40
39219;DHT22;24934;52.752;6.964;2023-06-14T09:31:46;28.90;73.40
39219;DHT22;24934;52.752;6.964;2023-06-14T09:34:12;29.00;72.50
39219;DHT22;24934;52.752;6.964;2023-06-14T09:36:40;29.00;73.80
39219;DHT22;24934;52.752;6.964;2023-06-14T09:39:08;29.30;72.50
39219;DHT22;24934;52.752;6.964;2023-06-14T09:41:36;28.40;73.10
39219;DHT22;24934;52.752;6.964;2023-06-14T09:44:04;28.20;71.90
39219;DHT22;24934;52.752;6.964;2023-06-14T09:46:30;28.70;74.00
39219;DHT22;24934;52.752;6.964;2023-06-14T09:48:57;28.10;71.50
39219;DHT22;24934;52.752;6.964;2023-06-14T09:51:23;27.90;72.80
39219;DHT22;24934;52.752;6.964;2023-06-14T09:53:50;27.90;72.20
39219;DHT22;24934;52.752;6.964;2023-06-14T09:56:28;28.60;73.20
39219;DHT22;24934;52.752;6.964;2023-06-14T09:58:59;29.10;71.40
39219;DHT22;24934;52.752;6.964;2023-06-14T10:01:26;29.30;71.50
39219;DHT22;24934;52.752;6.964;2023-06-14T10:04:01;29.00;71.50
39219;DHT22;24934;52.752;6.964;2023-06-14T10:06:30;28.00;73.20
39219;DHT22;24934;52.752;6.964;2023-06-14T10:08:58;27.70;73.10
39219;DHT22;24934;52.752;6.964;2023-06-14T10:11:29;27.40;72.30
39219;DHT22;24934;52.752;6.964;2023-06-14T10:13:56;26.60;73.30
39219;DHT22;24934;52.752;6.964;2023-06-14T10:16:33;26.70;74.60
39219;DHT22;24934;52.752;6.964;2023-06-14T10:19:04;26.50;74.60
39219;DHT22;24934;52.752;6.964;2023-06-14T10:21:37;26.50;74.80
39219;DHT22;24934;52.752;6.964;2023-06-14T10:24:08;27.00;76.30
39219;DHT22;24934;52.752;6.964;2023-06-14T10:26:57;26.50;73.80
39219;DHT22;24934;52.752;6.964;2023-06-14T10:29:22;26.50;74.80
39219;DHT22;24934;52.752;6.964;2023-06-14T10:31:50;27.00;74.90
39219;DHT22;24934;52.752;6.964;2023-06-14T10:37:11;27.90;74.30
39219;DHT22;24934;52.752;6.964;2023-06-14T10:39:42;27.80;73.60
39219;DHT22;24934;52.752;6.964;2023-06-14T10:42:08;27.70;75.00
39219;DHT22;24934;52.752;6.964;2023-06-14T10:44:45;28.00;73.60
39219;DHT22;24934;52.752;6.964;2023-06-14T10:47:34;28.40;74.10
39219;DHT22;24934;52.752;6.964;2023-06-14T10:52:38;29.00;74.00
39219;DHT22;24934;52.752;6.964;2023-06-14T10:55:17;29.10;73.50
39219;DHT22;24934;52.752;6.964;2023-06-14T10:57:45;29.00;73.90
39219;DHT22;24934;52.752;6.964;2023-06-14T11:00:13;28.30;74.80
39219;DHT22;24934;52.752;6.964;2023-06-14T11:05:25;28.40;74.40
39219;DHT22;24934;52.752;6.964;2023-06-14T11:10:37;28.50;74.80
39219;DHT22;24934;52.752;6.964;2023-06-14T11:13:03;28.50;76.00
39219;DHT22;24934;52.752;6.964;2023-06-14T11:15:30;28.40;74.10
39219;DHT22;24934;52.752;6.964;2023-06-14T11:17:57;28.70;75.80
39219;DHT22;24934;52.752;6.964;2023-06-14T11:20:30;29.40;76.00
39219;DHT22;24934;52.752;6.964;2023-06-14T11:22:56;29.30;74.20
39219;DHT22;24934;52.752;6.964;2023-06-14T11:25:22;29.60;75.90
39219;DHT22;24934;52.752;6.964;2023-06-14T11:27:53;29.30;76.70
39219;DHT22;24934;52.752;6.964;2023-06-14T11:30:19;29.50;75.70
39219;DHT22;24934;52.752;6.964;2023-06-14T11:32:52;29.30;75.50
39219;DHT22;24934;52.752;6.964;2023-06-14T11:35:20;29.40;75.30
39219;DHT22;24934;52.752;6.964;2023-06-14T11:37:48;29.30;75.00
39219;DHT22;24934;52.752;6.964;2023-06-14T11:40:17;29.50;74.70
39219;DHT22;24934;52.752;6.964;2023-06-14T11:42:43;29.80;74.10
39219;DHT22;24934;52.752;6.964;2023-06-14T11:45:10;29.40;73.90
39219;DHT22;24934;52.752;6.964;2023-06-14T11:47:37;29.50;75.40
39219;DHT22;24934;52.752;6.964;2023-06-14T11:50:04;29.30;74.90
39219;DHT22;24934;52.752;6.964;2023-06-14T11:52:31;29.20;75.30
39219;DHT22;24934;52.752;6.964;2023-06-14T11:54:57;28.40;75.60
39219;DHT22;24934;52.752;6.964;2023-06-14T11:57:25;28.70;76.40
39219;DHT22;24934;52.752;6.964;2023-06-14T11:59:51;28.70;76.90
39219;DHT22;24934;52.752;6.964;2023-06-14T12:02:18;28.20;75.30
39219;DHT22;24934;52.752;6.964;2023-06-14T12:04:46;27.80;76.30
39219;DHT22;24934;52.752;6.964;2023-06-14T12:07:13;27.80;75.80
39219;DHT22;24934;52.752;6.964;2023-06-14T12:12:28;28.30;76.20
39219;DHT22;24934;52.752;6.964;2023-06-14T12:14:58;28.30;75.80
39219;DHT22;24934;52.752;6.964;2023-06-14T12:17:24;28.00;78.20
39219;DHT22;24934;52.752;6.964;2023-06-14T12:19:50;28.20;77.70
39219;DHT22;24934;52.752;6.964;2023-06-14T12:22:17;28.00;76.50
39219;DHT22;24934;52.752;6.964;2023-06-14T12:24:44;27.20;76.00
39219;DHT22;24934;52.752;6.964;2023-06-14T12:27:10;26.90;78.10
39219;DHT22;24934;52.752;6.964;2023-06-14T12:29:46;26.80;78.00
39219;DHT22;24934;52.752;6.964;2023-06-14T12:32:11;27.00;78.60
39219;DHT22;24934;52.752;6.964;2023-06-14T12:34:38;27.20;78.30
39219;DHT22;24934;52.752;6.964;2023-06-14T12:37:04;27.70;77.70
39219;DHT22;24934;52.752;6.964;2023-06-14T12:39:30;28.20;77.60
39219;DHT22;24934;52.752;6.964;2023-06-14T12:41:59;28.20;77.70
39219;DHT22;24934;52.752;6.964;2023-06-14T12:44:24;28.30;77.80
39219;DHT22;24934;52.752;6.964;2023-06-14T12:46:51;28.20;77.00
39219;DHT22;24934;52.752;6.964;2023-06-14T12:49:22;28.70;79.30
39219;DHT22;24934;52.752;6.964;2023-06-14T12:51:48;28.60;76.60
39219;DHT22;24934;52.752;6.964;2023-06-14T12:54:13;28.40;77.60
39219;DHT22;24934;52.752;6.964;2023-06-14T12:56:40;28.40;78.50
39219;DHT22;24934;52.752;6.964;2023-06-14T12:59:07;28.10;76.90
39219;DHT22;24934;52.752;6.964;2023-06-14T13:01:33;27.90;78.20
39219;DHT22;24934;52.752;6.964;2023-06-14T13:03:58;28.10;78.40
39219;DHT22;24934;52.752;6.964;2023-06-14T13:06:24;27.80;76.80
39219;DHT22;24934;52.752;6.964;2023-06-14T13:08:50;27.00;77.60
39219;DHT22;24934;52.752;6.964;2023-06-14T13:11:16;26.80;80.20
39219;DHT22;24934;52.752;6.964;2023-06-14T13:13:42;26.80;80.20
39219;DHT22;24934;52.752;6.964;2023-06-14T13:16:07;27.30;78.90
39219;DHT22;24934;52.752;6.964;2023-06-14T13:18:33;27.50;79.30
39219;DHT22;24934;52.752;6.964;2023-06-14T13:20:59;27.20;78.10
39219;DHT22;24934;52.752;6.964;2023-06-14T13:23:27;27.10;80.90
39219;DHT22;24934;52.752;6.964;2023-06-14T13:25:53;27.40;79.20
39219;DHT22;24934;52.752;6.964;2023-06-14T13:28:19;27.70;79.20
39219;DHT22;24934;52.752;6.964;2023-06-14T13:30:46;28.10;78.80
39219;DHT22;24934;52.752;6.964;2023-06-14T13:33:13;28.00;77.10
39219;DHT22;24934;52.752;6.964;2023-06-14T13:35:39;27.40;78.00
39219;DHT22;24934;52.752;6.964;2023-06-14T13:38:04;26.90;79.40
39219;DHT22;24934;52.752;6.964;2023-06-14T13:40:33;26.70;80.10
39219;DHT22;24934;52.752;6.964;2023-06-14T13:42:59;26.90;80.30
39219;DHT22;24934;52.752;6.964;2023-06-14T13:45:26;27.10;77.50
39219;DHT22;24934;52.752;6.964;2023-06-14T13:47:52;27.50;79.00
39219;DHT22;24934;52.752;6.964;2023-06-14T13:50:17;27.80;76.90
39219;DHT22;24934;52.752;6.964;2023-06-14T13:52:46;27.60;76.70
39219;DHT22;24934;52.752;6.964;2023-06-14T13:55:12;27.80;77.60
39219;DHT22;24934;52.752;6.964;2023-06-14T13:57:39;27.50;78.30
39219;DHT22;24934;52.752;6.964;2023-06-14T14:00:05;26.90;77.60
39219;DHT22;24934;52.752;6.964;2023-06-14T14:02:31;26.90;80.10
39219;DHT22;24934;52.752;6.964;2023-06-14T14:05:07;26.80;79.20
39219;DHT22;24934;52.752;6.964;2023-06-14T14:07:33;27.20;78.90
39219;DHT22;24934;52.752;6.964;2023-06-14T14:10:00;27.70;78.00
39219;DHT22;24934;52.752;6.964;2023-06-14T14:12:26;27.70;78.40
39219;DHT22;24934;52.752;6.964;2023-06-14T14:14:54;27.60;78.00
39219;DHT22;24934;52.752;6.964;2023-06-14T14:17:21;27.60;78.40
39219;DHT22;24934;52.752;6.964;2023-06-14T14:19:46;27.50;79.10
39219;DHT22;24934;52.752;6.964;2023-06-14T14:22:15;27.60;79.70
39219;DHT22;24934;52.752;6.964;2023-06-14T14:24:46;27.90;79.00
39219;DHT22;24934;52.752;6.964;2023-06-14T14:27:12;28.10;79.00
39219;DHT22;24934;52.752;6.964;2023-06-14T14:29:39;28.00;77.90
39219;DHT22;24934;52.752;6.964;2023-06-14T14:32:08;27.20;77.50
39219;DHT22;24934;52.752;6.964;2023-06-14T14:34:38;26.80;78.70
39219;DHT22;24934;52.752;6.964;2023-06-14T14:37:04;26.90;80.10
39219;DHT22;24934;52.752;6.964;2023-06-14T14:39:30;27.00;79.40
39219;DHT22;24934;52.752;6.964;2023-06-14T14:41:56;27.60;80.70
39219;DHT22;24934;52.752;6.964;2023-06-14T14:44:22;28.20;81.00
39219;DHT22;24934;52.752;6.964;2023-06-14T14:46:47;28.30;77.50
39219;DHT22;24934;52.752;6.964;2023-06-14T14:49:13;27.90;78.40
39219;DHT22;24934;52.752;6.964;2023-06-14T14:51:39;27.60;78.10
39219;DHT22;24934;52.752;6.964;2023-06-14T14:54:05;27.20;77.90
39219;DHT22;24934;52.752;6.964;2023-06-14T14:56:32;26.70;77.80
39219;DHT22;24934;52.752;6.964;2023-06-14T14:58:58;26.40;80.30
39219;DHT22;24934;52.752;6.964;2023-06-14T15:01:23;26.70;81.00
39219;DHT22;24934;52.752;6.964;2023-06-14T15:03:52;26.80;77.30
39219;DHT22;24934;52.752;6.964;2023-06-14T15:06:18;26.90;79.90
39219;DHT22;24934;52.752;6.964;2023-06-14T15:08:44;27.00;79.10
39219;DHT22;24934;52.752;6.964;2023-06-14T15:11:10;27.50;78.00
39219;DHT22;24934;52.752;6.964;2023-06-14T15:13:35;27.10;77.20
39219;DHT22;24934;52.752;6.964;2023-06-14T15:16:01;26.60;77.70
39219;DHT22;24934;52.752;6.964;2023-06-14T15:18:27;25.90;78.70
39219;DHT22;24934;52.752;6.964;2023-06-14T15:20:53;25.70;80.10
39219;DHT22;24934;52.752;6.964;2023-06-14T15:23:21;25.40;80.60
39219;DHT22;24934;52.752;6.964;2023-06-14T15:25:50;25.20;79.90
39219;DHT22;24934;52.752;6.964;2023-06-14T15:28:18;25.40;81.10
39219;DHT22;24934;52.752;6.964;2023-06-14T15:30:43;25.50;80.70
39219;DHT22;24934;52.752;6.964;2023-06-14T15:33:09;25.50;82.20
39219;DHT22;24934;52.752;6.964;2023-06-14T15:35:35;25.50;80.70
39219;DHT22;24934;52.752;6.964;2023-06-14T15:38:01;25.50;79.00
39219;DHT22;24934;52.752;6.964;2023-06-14T15:40:27;25.60;79.40
39219;DHT22;24934;52.752;6.964;2023-06-14T15:42:54;25.40;78.60
39219;DHT22;24934;52.752;6.964;2023-06-14T15:45:20;25.40;78.80
39219;DHT22;24934;52.752;6.964;2023-06-14T15:47:45;25.40;78.90